createdAt,value
2022-12-18T00:02:25.527Z,31.42
2022-12-18T00:04:52.277Z,28.65
2022-12-18T00:07:19.082Z,32.08
2022-12-18T00:09:46.843Z,39.33
2022-12-18T00:14:44.494Z,32.08
2022-12-18T00:17:11.279Z,29.35
2022-12-18T00:19:38.073Z,30.05
2022-12-18T00:22:04.910Z,29.85
2022-12-18T00:24:31.722Z,31.35
2022-12-18T00:26:58.533Z,26.40
2022-12-18T00:29:25.279Z,32.50
2022-12-18T00:31:52.272Z,30.08
2022-12-18T00:34:19.077Z,31.20
2022-12-18T00:36:48.774Z,31.08
2022-12-18T00:39:15.596Z,33.35
2022-12-18T00:42:00.915Z,31.08
2022-12-18T00:44:27.734Z,30.17
2022-12-18T00:46:54.489Z,29.77
2022-12-18T00:49:21.590Z,28.67
2022-12-18T00:51:49.384Z,29.23
2022-12-18T00:54:17.742Z,27.85
2022-12-18T00:56:48.999Z,31.95
2022-12-18T00:59:18.115Z,31.35
2022-12-18T01:01:45.804Z,27.52
2022-12-18T01:04:12.804Z,30.02
2022-12-18T01:06:39.666Z,28.02
2022-12-18T01:09:06.996Z,29.42
2022-12-18T01:11:33.811Z,31.98
2022-12-18T01:14:00.614Z,30.42
2022-12-18T01:16:27.491Z,31.17
2022-12-18T01:18:55.521Z,30.65
2022-12-18T01:21:23.852Z,30.52
2022-12-18T01:23:55.313Z,32.28
2022-12-18T01:26:22.348Z,28.55
2022-12-18T01:28:49.221Z,30.83
2022-12-18T01:31:30.920Z,32.78
2022-12-18T01:33:58.432Z,28.98
2022-12-18T01:36:28.152Z,30.35
2022-12-18T01:38:55.977Z,29.70
2022-12-18T01:41:48.594Z,31.13
2022-12-18T01:44:49.630Z,30.17
2022-12-18T01:47:21.498Z,27.50
2022-12-18T01:49:48.592Z,29.52
2022-12-18T01:52:16.420Z,25.65
2022-12-18T01:54:43.567Z,27.63
2022-12-18T01:57:10.529Z,31.85
2022-12-18T01:59:39.871Z,26.40
2022-12-18T02:02:09.259Z,27.65
2022-12-18T02:04:36.308Z,30.23
2022-12-18T02:07:17.862Z,31.10
2022-12-18T02:09:56.179Z,31.83
2022-12-18T02:12:25.612Z,29.30
2022-12-18T02:15:26.177Z,26.40
2022-12-18T02:18:07.630Z,28.00
2022-12-18T02:20:58.120Z,26.88
2022-12-18T02:23:48.337Z,29.30
2022-12-18T02:26:22.947Z,29.52
2022-12-18T02:29:04.930Z,28.77
2022-12-18T02:31:43.340Z,27.88
2022-12-18T02:34:12.179Z,28.83
2022-12-18T02:36:42.798Z,27.63
2022-12-18T02:39:13.062Z,24.75
2022-12-18T02:41:40.721Z,29.20
2022-12-18T02:44:12.803Z,29.85
2022-12-18T02:46:43.741Z,24.63
2022-12-18T02:49:32.159Z,25.15
2022-12-18T02:52:30.226Z,24.92
2022-12-18T02:55:13.656Z,26.60
2022-12-18T02:58:00.950Z,26.92
2022-12-18T03:00:38.725Z,27.48
2022-12-18T03:03:09.102Z,28.40
2022-12-18T03:05:59.792Z,23.60
2022-12-18T03:08:33.099Z,29.38
2022-12-18T03:11:07.072Z,25.60
2022-12-18T03:13:58.068Z,27.27
2022-12-18T03:16:29.643Z,26.08
2022-12-18T03:18:58.828Z,34.80
2022-12-18T03:21:51.676Z,27.88
2022-12-18T03:24:20.832Z,29.58
2022-12-18T03:26:50.212Z,26.27
2022-12-18T03:29:19.889Z,28.05
2022-12-18T03:31:52.412Z,32.72
2022-12-18T03:34:27.772Z,27.73
2022-12-18T03:36:54.733Z,28.27
2022-12-18T03:39:21.884Z,30.05
2022-12-18T03:41:59.143Z,30.27
2022-12-18T03:44:36.854Z,28.02
2022-12-18T03:47:18.418Z,31.73
2022-12-18T03:49:56.634Z,26.60
2022-12-18T03:52:39.550Z,30.13
2022-12-18T03:55:08.101Z,27.02
2022-12-18T03:57:35.362Z,29.52
2022-12-18T04:00:07.086Z,31.70
2022-12-18T04:02:36.712Z,26.52
2022-12-18T04:05:07.973Z,27.48
2022-12-18T04:07:35.637Z,27.90
2022-12-18T04:10:07.020Z,28.63
2022-12-18T04:12:33.875Z,26.17
2022-12-18T04:15:00.692Z,26.27
2022-12-18T04:17:27.533Z,26.48
2022-12-18T04:19:54.304Z,26.83
2022-12-18T04:22:21.126Z,27.98
2022-12-18T04:24:47.916Z,22.95
2022-12-18T04:27:15.056Z,27.60
2022-12-18T04:29:41.988Z,24.55
2022-12-18T04:32:09.445Z,23.85
2022-12-18T04:34:36.233Z,25.40
2022-12-18T04:37:02.994Z,24.20
2022-12-18T04:39:29.941Z,28.23
2022-12-18T04:41:56.757Z,27.27
2022-12-18T04:44:23.995Z,24.42
2022-12-18T04:46:50.823Z,26.85
2022-12-18T04:49:17.712Z,24.17
2022-12-18T04:51:44.504Z,23.40
2022-12-18T04:54:11.244Z,25.58
2022-12-18T04:56:38.030Z,25.13
2022-12-18T04:59:04.760Z,25.50
2022-12-18T05:01:34.729Z,25.45
2022-12-18T05:04:03.033Z,23.23
2022-12-18T05:06:30.327Z,26.52
2022-12-18T05:08:57.164Z,23.00
2022-12-18T05:11:23.909Z,27.98
2022-12-18T05:13:50.720Z,25.92
2022-12-18T05:16:17.749Z,26.15
2022-12-18T05:18:44.681Z,26.27
2022-12-18T05:21:11.538Z,25.88
2022-12-18T05:23:38.979Z,24.85
2022-12-18T05:26:07.646Z,25.52
2022-12-18T05:28:36.033Z,25.70
2022-12-18T05:31:04.864Z,25.85
2022-12-18T05:33:34.065Z,28.38
2022-12-18T05:36:02.483Z,26.15
2022-12-18T05:38:31.012Z,26.90
2022-12-18T05:40:58.360Z,26.85
2022-12-18T05:43:26.402Z,28.35
2022-12-18T05:45:54.205Z,23.35
2022-12-18T05:48:21.720Z,22.58
2022-12-18T05:50:49.812Z,26.08
2022-12-18T05:53:18.513Z,25.90
2022-12-18T05:55:45.879Z,21.38
2022-12-18T05:58:13.982Z,24.45
2022-12-18T06:00:42.691Z,21.83
2022-12-18T06:03:11.265Z,23.05
2022-12-18T06:05:43.310Z,23.70
2022-12-18T06:08:10.878Z,22.48
2022-12-18T06:10:38.290Z,23.75
2022-12-18T06:13:06.154Z,25.73
2022-12-18T06:15:33.510Z,24.27
2022-12-18T06:18:01.801Z,24.17
2022-12-18T06:20:33.867Z,22.10
2022-12-18T06:23:01.320Z,24.45
2022-12-18T06:25:28.213Z,22.92
2022-12-18T06:27:55.067Z,21.50
2022-12-18T06:30:21.949Z,23.63
2022-12-18T06:32:56.561Z,22.88
2022-12-18T06:35:24.043Z,26.05
2022-12-18T06:37:50.826Z,20.45
2022-12-18T06:40:17.751Z,22.25
2022-12-18T06:42:44.580Z,24.98
2022-12-18T06:45:12.363Z,22.67
2022-12-18T06:47:39.158Z,23.00
2022-12-18T06:50:06.651Z,23.67
2022-12-18T06:52:34.565Z,21.50
2022-12-18T06:55:01.455Z,23.10
2022-12-18T06:57:28.216Z,22.60
2022-12-18T06:59:55.162Z,23.98
2022-12-18T07:02:22.080Z,21.05
2022-12-18T07:04:52.045Z,20.63
2022-12-18T07:07:19.110Z,23.20
2022-12-18T07:09:46.005Z,23.65
2022-12-18T07:12:12.823Z,21.42
2022-12-18T07:14:39.594Z,22.30
2022-12-18T07:17:06.640Z,22.45
2022-12-18T07:19:33.797Z,23.38
2022-12-18T07:22:00.821Z,20.50
2022-12-18T07:24:27.749Z,18.73
2022-12-18T07:26:54.562Z,20.00
2022-12-18T07:29:21.832Z,22.70
2022-12-18T07:31:48.608Z,19.00
2022-12-18T07:34:16.275Z,20.23
2022-12-18T07:36:43.358Z,19.42
2022-12-18T07:39:12.049Z,17.75
2022-12-18T07:41:43.765Z,20.58
2022-12-18T07:44:13.939Z,28.50
2022-12-18T07:46:40.731Z,24.15
2022-12-18T07:49:07.735Z,22.38
2022-12-18T07:51:34.597Z,21.50
2022-12-18T07:54:01.377Z,19.23
2022-12-18T07:56:29.898Z,22.25
2022-12-18T07:58:57.461Z,19.20
2022-12-18T08:01:24.368Z,20.05
2022-12-18T08:03:52.269Z,19.13
2022-12-18T08:06:22.164Z,17.63
2022-12-18T08:08:55.407Z,19.35
2022-12-18T08:11:23.568Z,18.88
2022-12-18T08:13:50.411Z,20.67
2022-12-18T08:16:18.036Z,19.80
2022-12-18T08:18:45.016Z,20.30
2022-12-18T08:21:17.304Z,16.80
2022-12-18T08:23:44.379Z,20.65
2022-12-18T08:26:12.651Z,16.83
2022-12-18T08:28:40.037Z,17.38
2022-12-18T08:31:07.606Z,18.73
2022-12-18T08:33:35.666Z,18.42
2022-12-18T08:36:06.553Z,19.35
2022-12-18T08:38:34.202Z,19.08
2022-12-18T08:41:02.425Z,19.45
2022-12-18T08:43:48.278Z,16.42
2022-12-18T08:46:16.788Z,15.00
2022-12-18T08:48:43.679Z,20.42
2022-12-18T08:51:13.316Z,19.02
2022-12-18T08:53:40.692Z,21.23
2022-12-18T08:56:08.522Z,20.35
2022-12-18T08:58:35.353Z,18.45
2022-12-18T09:01:04.535Z,19.67
2022-12-18T09:03:32.666Z,15.85
2022-12-18T09:06:00.510Z,20.58
2022-12-18T09:08:27.967Z,18.00
2022-12-18T09:10:55.259Z,17.30
2022-12-18T09:13:22.591Z,18.73
2022-12-18T09:15:52.551Z,17.23
2022-12-18T09:18:21.127Z,17.13
2022-12-18T09:20:48.373Z,15.15
2022-12-18T09:23:15.496Z,15.52
2022-12-18T09:25:42.351Z,14.85
2022-12-18T09:28:17.226Z,18.63
2022-12-18T09:30:49.941Z,17.52
2022-12-18T09:33:18.243Z,16.67
2022-12-18T09:35:46.527Z,16.58
2022-12-18T09:38:19.743Z,17.35
2022-12-18T09:40:52.707Z,15.70
2022-12-18T09:43:29.035Z,13.77
2022-12-18T09:46:03.624Z,19.85
2022-12-18T09:48:35.833Z,16.60
2022-12-18T09:51:25.346Z,16.73
2022-12-18T09:53:57.982Z,15.68
2022-12-18T09:56:28.213Z,14.10
2022-12-18T09:59:02.601Z,13.75
2022-12-18T10:01:41.460Z,14.60
2022-12-18T10:04:11.307Z,15.90
2022-12-18T10:07:09.136Z,14.68
2022-12-18T10:09:47.868Z,15.45
2022-12-18T10:12:52.348Z,15.23
2022-12-18T10:15:40.162Z,14.93
2022-12-18T10:18:36.154Z,15.25
2022-12-18T10:21:12.212Z,15.07
2022-12-18T10:23:54.089Z,16.13
2022-12-18T10:26:21.171Z,14.70
2022-12-18T10:28:48.949Z,15.90
2022-12-18T10:31:24.260Z,17.83
2022-12-18T10:33:52.340Z,23.92
2022-12-18T10:36:19.485Z,17.52
2022-12-18T10:38:46.340Z,14.88
2022-12-18T10:41:20.037Z,15.15
2022-12-18T10:43:49.342Z,16.73
2022-12-18T10:46:20.647Z,16.65
2022-12-18T10:48:55.283Z,14.63
2022-12-18T10:51:22.092Z,18.75
2022-12-18T10:54:06.218Z,16.35
2022-12-18T10:56:36.682Z,18.10
2022-12-18T10:59:09.345Z,19.30
2022-12-18T11:01:48.531Z,15.07
2022-12-18T11:04:24.699Z,16.10
2022-12-18T11:07:05.024Z,16.63
2022-12-18T11:09:37.891Z,17.45
2022-12-18T11:12:18.815Z,16.40
2022-12-18T11:14:51.816Z,16.13
2022-12-18T11:17:25.904Z,19.85
2022-12-18T11:19:55.946Z,20.13
2022-12-18T11:22:30.117Z,23.17
2022-12-18T11:28:03.295Z,15.93
2022-12-18T11:30:33.248Z,20.05
2022-12-18T11:33:07.497Z,14.45
2022-12-18T11:35:43.312Z,19.15
2022-12-18T11:38:27.013Z,15.27
2022-12-18T11:41:19.806Z,16.83
2022-12-18T11:43:53.944Z,17.23
2022-12-18T11:46:41.060Z,21.50
2022-12-18T11:49:19.857Z,21.40
2022-12-18T11:52:25.140Z,23.30
2022-12-18T11:54:54.298Z,31.98
2022-12-18T11:57:39.611Z,26.15
2022-12-18T12:00:26.948Z,30.77
2022-12-18T12:03:25.538Z,35.15
2022-12-18T12:06:46.698Z,22.02
2022-12-18T12:09:16.411Z,16.77
2022-12-18T12:11:45.971Z,18.40
2022-12-18T12:14:26.152Z,20.10
2022-12-18T12:17:11.445Z,17.88
2022-12-18T12:20:01.511Z,19.13
2022-12-18T12:22:54.728Z,24.65
2022-12-18T12:25:59.763Z,23.60
2022-12-18T12:28:51.395Z,28.00
2022-12-18T12:31:27.501Z,20.83
2022-12-18T12:33:57.035Z,23.70
2022-12-18T12:36:30.093Z,22.33
2022-12-18T12:39:02.488Z,23.27
2022-12-18T12:41:53.289Z,20.95
2022-12-18T12:44:25.275Z,27.75
2022-12-18T12:46:56.186Z,21.17
2022-12-18T12:49:27.972Z,19.92
2022-12-18T12:52:02.783Z,18.98
2022-12-18T12:54:32.712Z,19.88
2022-12-18T12:57:11.361Z,19.08
2022-12-18T13:00:09.227Z,20.85
2022-12-18T13:03:17.104Z,19.48
2022-12-18T13:05:56.084Z,21.13
2022-12-18T13:08:30.038Z,18.63
2022-12-18T13:11:18.523Z,20.00
2022-12-18T13:13:55.297Z,20.55
2022-12-18T13:16:28.586Z,19.05
2022-12-18T13:19:00.026Z,22.63
2022-12-18T13:21:31.535Z,20.25
2022-12-18T13:24:24.624Z,21.00
2022-12-18T13:26:51.651Z,25.17
2022-12-18T13:29:58.400Z,21.90
2022-12-18T13:32:27.594Z,24.17
2022-12-18T13:35:22.685Z,23.50
2022-12-18T13:37:54.128Z,21.15
2022-12-18T13:40:39.740Z,22.70
2022-12-18T13:43:46.739Z,23.25
2022-12-18T13:46:21.511Z,21.13
2022-12-18T13:49:02.301Z,20.92
2022-12-18T13:51:33.957Z,21.40
2022-12-18T13:54:00.780Z,18.80
2022-12-18T13:56:30.721Z,19.48
2022-12-18T14:30:57.828Z,35.90
2022-12-18T14:33:28.803Z,36.58
2022-12-18T14:36:05.069Z,30.73
2022-12-18T14:38:37.398Z,27.48
2022-12-18T14:41:13.415Z,24.42
2022-12-18T14:43:42.981Z,20.83
2022-12-18T14:46:38.330Z,21.83
2022-12-18T14:49:32.328Z,23.50
2022-12-18T14:52:08.221Z,22.77
2022-12-18T14:54:38.230Z,27.55
2022-12-18T14:57:25.912Z,23.20
2022-12-18T14:59:53.231Z,24.15
2022-12-18T15:02:27.587Z,23.75
2022-12-18T15:05:12.747Z,25.88
2022-12-18T15:07:45.102Z,27.45
2022-12-18T15:10:24.901Z,28.77
2022-12-18T15:13:09.366Z,25.58
2022-12-18T15:15:37.018Z,24.95
2022-12-18T15:18:13.288Z,25.23
2022-12-18T15:20:56.042Z,23.40
2022-12-18T15:23:46.333Z,27.63
2022-12-18T15:26:15.807Z,27.27
2022-12-18T15:28:57.099Z,26.98
2022-12-18T15:31:29.671Z,28.20
2022-12-18T15:33:56.518Z,29.92
2022-12-18T15:36:26.764Z,24.42
2022-12-18T15:38:58.900Z,32.53
2022-12-18T15:41:35.778Z,29.60
2022-12-18T15:44:16.851Z,26.17
2022-12-18T15:46:43.884Z,37.05
2022-12-18T15:49:11.853Z,26.45
2022-12-18T15:51:39.865Z,30.15
2022-12-18T15:54:12.209Z,30.17
2022-12-18T15:56:57.770Z,25.33
2022-12-18T15:59:25.641Z,24.10
2022-12-18T16:01:56.707Z,30.15
2022-12-18T16:04:25.564Z,25.73
2022-12-18T16:07:14.867Z,24.90
2022-12-18T16:09:40.018Z,25.35
2022-12-18T16:12:12.319Z,29.40
2022-12-18T16:14:39.335Z,27.23
2022-12-18T16:17:09.953Z,26.90
2022-12-18T16:19:36.803Z,25.15
2022-12-18T16:22:05.945Z,26.55
2022-12-18T16:24:37.166Z,26.45
2022-12-18T16:27:04.450Z,30.33
2022-12-18T16:29:31.341Z,27.48
2022-12-18T16:32:00.030Z,30.67
2022-12-18T16:34:35.397Z,29.40
2022-12-18T16:37:08.355Z,28.33
2022-12-18T16:39:36.513Z,24.27
2022-12-18T16:42:06.392Z,24.40
2022-12-18T16:44:34.639Z,24.58
2022-12-18T16:47:03.185Z,28.73
2022-12-18T16:49:30.991Z,29.48
2022-12-18T16:51:57.919Z,26.60
2022-12-18T16:54:25.129Z,28.42
2022-12-18T16:56:52.461Z,27.02
2022-12-18T16:59:19.939Z,25.50
2022-12-18T17:01:47.332Z,28.30
2022-12-18T17:04:14.897Z,27.45
2022-12-18T17:06:44.183Z,25.38
2022-12-18T17:09:16.302Z,26.27
2022-12-18T17:11:43.836Z,27.42
2022-12-18T17:14:19.275Z,26.05
2022-12-18T17:16:47.152Z,24.92
2022-12-18T17:19:17.390Z,26.92
2022-12-18T17:21:45.564Z,24.13
2022-12-18T17:24:12.478Z,26.95
2022-12-18T17:26:39.648Z,26.00
2022-12-18T17:29:06.749Z,27.80
2022-12-18T17:31:34.267Z,24.02
2022-12-18T17:34:04.478Z,27.80
2022-12-18T17:36:32.370Z,29.05
2022-12-18T17:39:03.327Z,29.65
2022-12-18T17:41:31.268Z,25.27
2022-12-18T17:44:04.205Z,25.20
2022-12-18T17:46:33.340Z,27.05
2022-12-18T17:49:01.924Z,26.45
2022-12-18T17:51:29.767Z,26.33
2022-12-18T17:53:56.607Z,24.70
2022-12-18T17:56:24.758Z,25.85
2022-12-18T17:58:52.451Z,24.73
2022-12-18T18:01:22.089Z,26.17
2022-12-18T18:03:49.811Z,26.98
2022-12-18T18:06:20.497Z,26.90
2022-12-18T18:08:47.468Z,27.10
2022-12-18T18:11:36.271Z,30.83
2022-12-18T18:14:06.092Z,26.13
2022-12-18T18:16:44.569Z,28.13
2022-12-18T18:19:18.373Z,24.75
2022-12-18T18:21:47.492Z,28.52
2022-12-18T18:24:17.741Z,26.80
2022-12-18T18:26:49.245Z,26.77
2022-12-18T18:29:18.803Z,28.05
2022-12-18T18:31:46.282Z,23.27
2022-12-18T18:34:22.362Z,28.35
2022-12-18T18:36:49.256Z,24.65
2022-12-18T18:39:16.658Z,31.27
2022-12-18T18:41:46.472Z,24.60
2022-12-18T18:44:24.418Z,23.80
2022-12-18T18:46:57.017Z,23.70
2022-12-18T18:49:26.964Z,28.25
2022-12-18T18:51:55.014Z,25.20
2022-12-18T18:54:22.250Z,25.55
2022-12-18T18:59:37.219Z,26.23
2022-12-18T19:02:04.542Z,27.67
2022-12-18T19:04:33.290Z,25.25
2022-12-18T19:07:00.394Z,26.17
2022-12-18T19:09:28.035Z,26.80
2022-12-18T19:12:14.322Z,23.65
2022-12-18T19:14:41.931Z,25.05
2022-12-18T19:17:09.355Z,23.33
2022-12-18T19:19:36.419Z,28.08
2022-12-18T19:22:06.419Z,28.92
2022-12-18T19:24:33.427Z,24.55
2022-12-18T19:27:00.267Z,22.63
2022-12-18T19:29:27.223Z,25.30
2022-12-18T19:31:54.350Z,27.42
2022-12-18T19:34:21.252Z,21.73
2022-12-18T19:36:48.171Z,23.10
2022-12-18T19:39:17.966Z,25.88
2022-12-18T19:41:46.755Z,23.42
2022-12-18T19:44:16.031Z,27.05
2022-12-18T19:46:44.096Z,22.42
2022-12-18T19:49:11.330Z,27.85
2022-12-18T19:51:43.378Z,22.48
2022-12-18T19:54:16.428Z,24.27
2022-12-18T19:56:43.751Z,22.38
2022-12-18T19:59:10.688Z,26.42
2022-12-18T20:01:37.835Z,25.17
2022-12-18T20:04:05.488Z,28.65
2022-12-18T20:06:49.980Z,22.95
2022-12-18T20:09:17.693Z,24.48
2022-12-18T20:11:44.833Z,28.25
2022-12-18T20:14:13.786Z,28.80
2022-12-18T20:16:41.441Z,21.80
2022-12-18T20:19:09.853Z,25.17
2022-12-18T20:21:37.666Z,24.10
2022-12-18T20:24:04.835Z,28.80
2022-12-18T20:26:31.832Z,24.80
2022-12-18T20:28:58.950Z,25.20
2022-12-18T20:31:26.232Z,23.80
2022-12-18T20:33:54.425Z,23.60
2022-12-18T20:36:24.573Z,24.70
2022-12-18T20:38:57.056Z,27.27
2022-12-18T20:41:26.284Z,25.85
2022-12-18T20:43:57.891Z,25.02
2022-12-18T20:46:24.886Z,26.40
2022-12-18T20:48:51.869Z,27.70
2022-12-18T20:51:20.700Z,28.58
2022-12-18T20:53:48.201Z,26.73
2022-12-18T20:56:21.911Z,27.88
2022-12-18T20:58:54.870Z,26.88
2022-12-18T21:01:23.416Z,26.73
2022-12-18T21:03:50.900Z,26.98
2022-12-18T21:06:19.438Z,26.65
2022-12-18T21:08:46.594Z,24.85
2022-12-18T21:11:38.050Z,30.17
2022-12-18T21:14:14.987Z,29.30
2022-12-18T21:16:45.612Z,25.27
2022-12-18T21:19:14.998Z,29.77
2022-12-18T21:21:42.628Z,28.50
2022-12-18T21:24:10.581Z,29.30
2022-12-18T21:26:44.951Z,25.25
2022-12-18T21:29:18.031Z,29.02
2022-12-18T21:31:46.152Z,26.15
2022-12-18T21:34:20.890Z,24.52
2022-12-18T21:36:48.609Z,29.63
2022-12-18T21:39:16.583Z,24.80
2022-12-18T21:42:02.278Z,29.33
2022-12-18T21:44:30.630Z,25.70
2022-12-18T21:47:10.773Z,24.30
2022-12-18T21:49:43.651Z,26.77
2022-12-18T21:52:12.057Z,27.23
2022-12-18T21:54:39.394Z,23.77
2022-12-18T21:57:08.638Z,25.08
2022-12-18T21:59:39.993Z,27.25
2022-12-18T22:02:18.886Z,24.27
2022-12-18T22:04:46.965Z,25.15
2022-12-18T22:07:15.514Z,22.55
2022-12-18T22:09:42.735Z,27.08
2022-12-18T22:12:12.782Z,24.90
2022-12-18T22:14:39.732Z,25.27
2022-12-18T22:17:06.642Z,24.10
2022-12-18T22:19:38.124Z,26.00
2022-12-18T22:22:09.640Z,25.73
2022-12-18T22:24:36.674Z,27.15
2022-12-18T22:27:03.669Z,28.17
2022-12-18T22:29:49.797Z,22.25
2022-12-18T22:32:30.943Z,21.35
2022-12-18T22:35:12.920Z,21.55
2022-12-18T22:37:45.011Z,24.05
2022-12-18T22:40:27.279Z,23.13
2022-12-18T22:43:23.292Z,26.20
2022-12-18T22:45:50.633Z,21.92
2022-12-18T22:48:17.891Z,22.77
2022-12-18T22:50:44.906Z,25.05
2022-12-18T22:53:12.465Z,23.98
2022-12-18T22:55:39.825Z,24.42
2022-12-18T22:58:07.026Z,26.27
2022-12-18T23:00:34.068Z,23.73
2022-12-18T23:03:01.432Z,24.13
2022-12-18T23:05:32.009Z,21.77
2022-12-18T23:07:59.449Z,23.52
2022-12-18T23:10:29.150Z,20.95
2022-12-18T23:12:56.190Z,21.08
2022-12-18T23:15:28.075Z,21.20
2022-12-18T23:17:59.622Z,20.88
2022-12-18T23:20:29.479Z,23.15
2022-12-18T23:22:59.698Z,22.60
2022-12-18T23:25:34.515Z,20.38
2022-12-18T23:28:01.558Z,22.67
2022-12-18T23:30:28.651Z,22.75
2022-12-18T23:32:58.298Z,21.10
2022-12-18T23:35:29.060Z,20.75
2022-12-18T23:37:59.997Z,19.15
2022-12-18T23:40:28.099Z,21.92
2022-12-18T23:42:55.511Z,20.05
2022-12-18T23:48:40.609Z,17.88
2022-12-18T23:49:49.369Z,18.80
2022-12-18T23:51:09.122Z,18.58
2022-12-18T23:53:36.546Z,22.88
2022-12-18T23:56:06.639Z,18.88
2022-12-18T23:58:34.282Z,19.67
